Terminal Aerodrome Forecast
Issued by NWS

Home | Current Version | Previous Version | Text Only | Print | Product List | Glossary On
Versions: 1 2 3 4 5 6 7 8 9 10 11 12 13 14
000
FTUS44 KBMX 260706 AAA
TAFMGM
TAF AMD
KMGM 260706Z 2607/2706 20005KT P6SM SKC
     FM260800 23004KT 4SM BR SCT010 BKN015
      TEMPO 2610/2613 2SM BR OVC005
     FM261500 28012KT P6SM SCT250=

USA.gov is the U.S. government's official web portal to all federal, state and local government web resources and services.